Friday, January 19, 2018, 2:38 AM EST
Back to Local

KESN, Easton / Newman Field

Location: Easton, MD, United States Lat: 38.8
Local Time: 2:38 AM EST ( 7:38 GMT) Lon: -76.067
Time Zone: US/Eastern Elev: 72 ft

Show me the last for .
Show Coded

Time T Td Feel RH Dir Speed Gust Alt SLP Vis Weather Sky Remarks
2018-01-19 02:26 28 18 - 65 - Calm - 30.14 - 10 CLR None
2018-01-19 02:06 28 17 - 63 - Calm - 30.15 - 10 CLR None
2018-01-19 01:48 27 17 23 67 280° 3 - 30.15 - 10 CLR None
2018-01-19 01:27 26 17 20 70 240° 5 - 30.15 - 10 CLR None
2018-01-19 01:06 26 17 - 67 - Calm - 30.15 - 10 CLR None
2018-01-19 00:48 25 17 21 71 230° 3 - 30.16 - 10 CLR None
2018-01-19 00:27 25 16 - 68 - Calm - 30.16 - 10 CLR None
2018-01-19 00:06 30 14 - 51 - Calm - 30.16 - 10 CLR None
2018-01-18 23:48 29 16 - 56 - Calm - 30.16 - 10 CLR None
2018-01-18 23:28 27 17 - 64 - Calm - 30.16 - 10 CLR None
2018-01-18 23:07 28 16 - 61 - Calm - 30.16 - 10 CLR None
2018-01-18 22:48 29 16 - 58 - Calm - 30.16 - 10 CLR None
2018-01-18 22:26 29 15 - 55 - Calm - 30.16 - 10 CLR None
2018-01-18 21:48 28 16 - 58 - Calm - 30.15 - 10 CLR None
2018-01-18 20:50 28 16 - 58 - Calm - 30.13 - 10 CLR None
2018-01-18 19:50 32 16 - 50 - Calm - 30.13 - 10 CLR None
2018-01-18 18:50 32 16 27 50 250° 5 - 30.12 - 10 CLR None
2018-01-18 17:50 34 14 30 43 180° 5 - 30.09 - 10 CLR None
2018-01-18 16:50 39 10 - 29 - Calm - 30.07 - 10 CLR None
2018-01-18 15:50 41 10 39 27 300° 3 - 30.06 - 10 CLR None
2018-01-18 14:45 39 10 34 29 300° 8 - 30.07 - 10 CLR None
2018-01-18 13:45 37 10 30 32 290° 10 - 30.08 - 10 CLR None
2018-01-18 12:50 34 12 23 40 310° 12 17 30.11 - 10 CLR None
2018-01-18 11:50 32 12 26 43 310° 6 - 30.16 - 10 CLR None
2018-01-18 10:50 30 10 21 42 310° 10 - 30.19 - 10 CLR None
2018-01-18 09:50 27 10 18 49 330° 8 - 30.21 - 10 CLR None
2018-01-18 08:50 25 9 14 49 310° 12 - 30.21 - 10 FEW100 None
2018-01-18 07:50 21 9 9 57 310° 13 - 30.19 - 10 FEW100 None
2018-01-18 06:50 19 9 7 62 310° 12 - 30.19 - 10 FEW100 None
2018-01-18 05:50 19 9 10 62 340° 7 - 30.20 - 10 CLR None
2018-01-18 05:06 21 10 11 63 320° 8 - 30.19 - 10 CLR None
2018-01-18 04:48 20 11 6 65 320° 9 16 30.18 - 10 CLR None
2018-01-18 04:27 20 10 8 64 330° 12 - 30.16 - 10 CLR None
2018-01-18 04:08 21 9 10 59 350° 9 - 30.18 - 10 CLR None
2018-01-18 03:48 21 9 11 60 360° 8 - 30.19 - 10 CLR None
2018-01-18 03:26 21 9 10 59 360° 9 - 30.22 - 10 CLR None
2018-01-18 03:07 21 9 7 58 360° 9 16 30.23 - 10 CLR None
2018-01-18 02:48 21 10 5 60 350° 12 21 30.20 - 10 CLR None

Support USWX by starting your Amazon purchase here.